createdAt,value
2023-02-11T00:08:14.940Z,100
2023-02-11T00:18:14.922Z,100
2023-02-11T00:28:14.935Z,100
2023-02-11T00:38:14.949Z,100
2023-02-11T00:48:14.944Z,100
2023-02-11T00:58:14.970Z,100
2023-02-11T01:08:14.974Z,100
2023-02-11T01:18:15.014Z,100
2023-02-11T01:28:15.062Z,100
2023-02-11T01:38:15.059Z,100
2023-02-11T01:48:15.045Z,100
2023-02-11T01:58:15.068Z,100
2023-02-11T02:08:15.066Z,100
2023-02-11T02:18:15.114Z,100
2023-02-11T02:28:15.181Z,100
2023-02-11T02:38:15.129Z,100
2023-02-11T02:48:15.144Z,100
2023-02-11T02:58:15.172Z,100
2023-02-11T03:08:15.167Z,100
2023-02-11T03:18:15.236Z,100
2023-02-11T03:28:15.258Z,100
2023-02-11T03:38:15.249Z,100
2023-02-11T03:48:15.251Z,100
2023-02-11T03:58:15.285Z,100
2023-02-11T04:08:15.292Z,100
2023-02-11T04:18:15.311Z,100
2023-02-11T04:28:15.349Z,100
2023-02-11T04:38:15.376Z,100
2023-02-11T04:48:15.360Z,100
2023-02-11T04:58:15.428Z,100
2023-02-11T05:08:15.391Z,100
2023-02-11T05:18:15.479Z,100
2023-02-11T05:28:15.466Z,100
2023-02-11T05:38:15.473Z,100
2023-02-11T05:48:15.497Z,100
2023-02-11T05:58:15.517Z,100
2023-02-11T06:08:15.506Z,100
2023-02-11T06:18:15.528Z,100
2023-02-11T06:28:15.593Z,100
2023-02-11T06:38:15.588Z,100
2023-02-11T06:48:15.608Z,100
2023-02-11T06:58:15.624Z,100
2023-02-11T07:08:15.642Z,100
2023-02-11T07:18:15.681Z,100
2023-02-11T07:28:15.693Z,100
2023-02-11T07:38:15.660Z,100
2023-02-11T07:48:15.696Z,100
2023-02-11T07:58:15.710Z,100
2023-02-11T08:08:15.700Z,100
2023-02-11T08:18:15.754Z,100
2023-02-11T08:28:15.778Z,100
2023-02-11T08:38:15.784Z,100
2023-02-11T08:48:15.753Z,100
2023-02-11T08:58:17.522Z,100
2023-02-11T09:08:15.769Z,100
2023-02-11T09:18:15.833Z,85
2023-02-11T09:28:15.890Z,75
2023-02-11T09:38:15.838Z,74
2023-02-11T09:48:15.789Z,64
2023-02-11T09:58:15.890Z,67
2023-02-11T10:08:16.973Z,65
2023-02-11T10:18:15.827Z,63
2023-02-11T10:28:15.937Z,59
2023-02-11T10:38:15.835Z,54
2023-02-11T10:48:16.492Z,48
2023-02-11T10:58:15.841Z,49
2023-02-11T11:08:15.803Z,47
2023-02-11T11:18:21.813Z,49
2023-02-11T11:28:15.915Z,49
2023-02-11T11:38:15.870Z,43
2023-02-11T11:48:15.780Z,43
2023-02-11T11:58:15.867Z,45
2023-02-11T12:08:15.806Z,50
2023-02-11T12:18:15.816Z,51
2023-02-11T12:28:15.858Z,54
2023-02-11T12:38:15.855Z,52
2023-02-11T12:48:15.839Z,53
2023-02-11T12:58:15.832Z,51
2023-02-11T13:08:15.845Z,49
2023-02-11T13:18:18.053Z,50
2023-02-11T13:28:15.850Z,51
2023-02-11T13:38:15.885Z,52
2023-02-11T13:48:15.870Z,49
2023-02-11T13:58:15.884Z,49
2023-02-11T14:08:15.855Z,51
2023-02-11T14:18:15.830Z,50
2023-02-11T14:28:15.853Z,50
2023-02-11T14:38:15.833Z,51
2023-02-11T14:48:15.823Z,48
2023-02-11T14:58:15.838Z,47
2023-02-11T15:08:15.904Z,48
2023-02-11T15:18:15.965Z,49
2023-02-11T15:28:15.848Z,50
2023-02-11T15:38:15.846Z,53
2023-02-11T15:48:15.847Z,58
2023-02-11T15:58:15.877Z,59
2023-02-11T16:08:15.860Z,66
2023-02-11T16:18:15.881Z,68
2023-02-11T16:28:15.872Z,66
2023-02-11T16:38:15.865Z,70
2023-02-11T16:48:15.860Z,81
2023-02-11T16:58:15.883Z,89
2023-02-11T17:08:15.830Z,92
2023-02-11T17:18:15.880Z,100
2023-02-11T17:28:15.879Z,100
2023-02-11T17:38:15.942Z,100
2023-02-11T17:48:15.860Z,100
2023-02-11T17:58:15.924Z,100
2023-02-11T18:08:15.862Z,100
2023-02-11T18:18:15.911Z,100
2023-02-11T18:28:15.955Z,100
2023-02-11T18:38:15.951Z,100
2023-02-11T18:48:15.912Z,100
2023-02-11T18:58:56.416Z,100
2023-02-11T19:08:15.989Z,100
2023-02-11T19:18:15.985Z,100
2023-02-11T19:28:16.028Z,100
2023-02-11T19:38:15.951Z,100
2023-02-11T19:48:15.939Z,100
2023-02-11T19:58:15.972Z,100
2023-02-11T20:08:15.976Z,100
2023-02-11T20:18:15.996Z,100
2023-02-11T20:28:16.000Z,100
2023-02-11T20:38:15.990Z,100
2023-02-11T20:48:15.996Z,100
2023-02-11T20:58:16.005Z,100
2023-02-11T21:08:16.012Z,100
2023-02-11T21:18:16.009Z,100
2023-02-11T21:28:16.054Z,100
2023-02-11T21:38:16.071Z,100
2023-02-11T21:48:16.041Z,100
2023-02-11T21:58:16.098Z,100
2023-02-11T22:08:17.067Z,100
2023-02-11T22:18:16.104Z,100
2023-02-11T22:28:16.111Z,100
2023-02-11T22:38:16.102Z,100
2023-02-11T22:48:16.084Z,100
2023-02-11T22:58:16.231Z,100
2023-02-11T23:08:16.100Z,100
2023-02-11T23:18:16.133Z,100
2023-02-11T23:28:16.214Z,100
2023-02-11T23:38:16.174Z,100
2023-02-11T23:48:16.151Z,100
2023-02-11T23:58:16.173Z,100
